Budapest Bridge — VRIZ5 — position and weather

sailwx.info

Track history (hours):
 
Tides and Currents Weather Stations Pressure Air Temp Water Temp Dewpoint Dewpoint Depression Visibility Wind Speed Wind Dir Waves Ship Positions

Budapest Bridge

Last reported at 2015-Jul-01 16:05 UTC. Time now 2015-Jul-03 07:55 UTC.
Position N 33°44' E 134°51'.

Length 268 m; draft 10.2 m.

Type: Cargo ship. MMSI: 477434200.

Date/timePositionNaut miles runAvg speedWind from/ knotsBaromVisibWave heightAir tempDewpointWater temp
2015-Jul-01 16:05N 33°44' E 134°51'917.4
2015-Jul-01 15:33N 33°53' E 134°53'1717.1
2015-Jul-01 14:34N 34°10' E 134°57'1716.6
2015-Jul-01 13:32N 34°26' E 135°05'1717.1
2015-Jul-01 12:33N 34°40' E 135°15'1 0.9
2015-Jul-01 11:29N 34°41' E 135°16'0 0.0
2015-Jul-01 10:29N 34°41' E 135°16'0 0.0
2015-Jul-01 09:29N 34°41' E 135°16'0 0.0
2015-Jul-01 08:29N 34°41' E 135°16'0 0.0
2015-Jul-01 07:29N 34°41' E 135°16'0 0.0
2015-Jul-01 06:17N 34°41' E 135°16'0 0.0
2015-Jul-01 05:29N 34°41' E 135°16'0 0.0
2015-Jul-01 04:29N 34°41' E 135°16'0 0.0
2015-Jul-01 03:29N 34°41' E 135°16'0 0.0
2015-Jul-01 02:23N 34°41' E 135°16'0 0.0
2015-Jul-01 01:21N 34°41' E 135°16'0 0.3
2015-Jul-01 00:33N 34°41' E 135°16'8 8.0
2015-Jun-30 23:33N 34°33' E 135°14'1818.3
2015-Jun-30 22:33N 34°18' E 134°60'1514.9
2015-Jun-30 21:34N 34°03' E 134°58'221 4.7
2015-Jun-28 22:33N 34°52' E 139°19'1514.6
2015-Jun-28 21:33N 34°60' E 139°34'1413.8
2015-Jun-28 20:33N 35°10' E 139°45'1211.7
2015-Jun-28 19:34N 35°22' E 139°42'6 5.3
2015-Jun-28 18:31N 35°27' E 139°40'0 0.0
2015-Jun-28 17:31N 35°27' E 139°40'0 0.0
2015-Jun-28 16:31N 35°27' E 139°40'0 0.0
2015-Jun-28 15:31N 35°27' E 139°40'0 0.0
2015-Jun-28 14:31N 35°27' E 139°40'0 0.0
2015-Jun-28 13:31N 35°27' E 139°40'0 0.0
2015-Jun-28 12:31N 35°27' E 139°40'0 0.0
2015-Jun-28 11:31N 35°27' E 139°40'0 0.0
2015-Jun-28 10:31N 35°27' E 139°40'3 3.0
2015-Jun-28 09:33N 35°26' E 139°44'5 5.1
2015-Jun-28 08:33N 35°29' E 139°49'3 2.8
2015-Jun-28 07:33N 35°29' E 139°45'0 0.0
2015-Jun-28 06:33N 35°29' E 139°45'0 0.0
2015-Jun-28 05:33N 35°29' E 139°45'0 0.0
2015-Jun-28 04:33N 35°29' E 139°45'0 0.0
2015-Jun-28 03:33N 35°29' E 139°45'1 1.2
2015-Jun-28 02:33N 35°28' E 139°45'8 8.4
2015-Jun-28 01:33N 35°37' E 139°46'0 0.2
2015-Jun-28 00:29N 35°37' E 139°46'0 0.0
2015-Jun-27 23:32N 35°37' E 139°46'0 0.0
2015-Jun-27 22:32N 35°37' E 139°46'0 0.0
2015-Jun-27 21:32N 35°37' E 139°46'0 0.0
2015-Jun-27 20:23N 35°37' E 139°46'0 0.0
2015-Jun-27 19:32N 35°37' E 139°46'0 0.0
2015-Jun-27 18:26N 35°37' E 139°46'0 0.0
2015-Jun-27 17:32N 35°37' E 139°46'0 0.0
2015-Jun-27 16:32N 35°37' E 139°46'0 0.0
2015-Jun-27 15:32N 35°37' E 139°46'0 0.0
2015-Jun-27 14:32N 35°37' E 139°46'0 0.0
2015-Jun-27 13:32N 35°37' E 139°46'0 0.0
2015-Jun-27 12:32N 35°37' E 139°46'0 0.0
2015-Jun-27 11:32N 35°37' E 139°46'0 0.0
2015-Jun-27 10:29N 35°37' E 139°46'0 0.0
2015-Jun-27 09:32N 35°37' E 139°46'0 0.2
2015-Jun-27 08:34N 35°36' E 139°46'9 9.0
2015-Jun-27 07:34N 35°29' E 139°51'1212.4
2015-Jun-27 06:33N 35°17' E 139°45'1010.3
2015-Jun-27 05:33N 35°07' E 139°46'1111.0
2015-Jun-27 04:33N 34°60' E 139°36'9 9.2
2015-Jun-27 03:33N 34°55' E 139°26'  
Track history (hours):
 
Tides and Currents Weather Stations Pressure Air Temp Water Temp Dewpoint Dewpoint Depression Visibility Wind Speed Wind Dir Waves Ship Positions

Budapest Bridge

Last reported at 2015-Jul-01 16:05 UTC. Time now 2015-Jul-03 07:55 UTC.
Position N 33°44' E 134°51'.

Length 268 m; draft 10.2 m.

Type: Cargo ship. MMSI: 477434200.

Date/timePositionNaut miles runAvg speedWind from/ knotsBaromVisibWave heightAir tempDewpointWater temp
2015-Jul-01 16:05N 33°44' E 134°51'917.4
2015-Jul-01 15:33N 33°53' E 134°53'1717.1
2015-Jul-01 14:34N 34°10' E 134°57'1716.6
2015-Jul-01 13:32N 34°26' E 135°05'1717.1
2015-Jul-01 12:33N 34°40' E 135°15'1 0.9
2015-Jul-01 11:29N 34°41' E 135°16'0 0.0
2015-Jul-01 10:29N 34°41' E 135°16'0 0.0
2015-Jul-01 09:29N 34°41' E 135°16'0 0.0
2015-Jul-01 08:29N 34°41' E 135°16'0 0.0
2015-Jul-01 07:29N 34°41' E 135°16'0 0.0
2015-Jul-01 06:17N 34°41' E 135°16'0 0.0
2015-Jul-01 05:29N 34°41' E 135°16'0 0.0
2015-Jul-01 04:29N 34°41' E 135°16'0 0.0
2015-Jul-01 03:29N 34°41' E 135°16'0 0.0
2015-Jul-01 02:23N 34°41' E 135°16'0 0.0
2015-Jul-01 01:21N 34°41' E 135°16'0 0.3
2015-Jul-01 00:33N 34°41' E 135°16'8 8.0
2015-Jun-30 23:33N 34°33' E 135°14'1818.3
2015-Jun-30 22:33N 34°18' E 134°60'1514.9
2015-Jun-30 21:34N 34°03' E 134°58'221 4.7
2015-Jun-28 22:33N 34°52' E 139°19'1514.6
2015-Jun-28 21:33N 34°60' E 139°34'1413.8
2015-Jun-28 20:33N 35°10' E 139°45'1211.7
2015-Jun-28 19:34N 35°22' E 139°42'6 5.3
2015-Jun-28 18:31N 35°27' E 139°40'0 0.0
2015-Jun-28 17:31N 35°27' E 139°40'0 0.0
2015-Jun-28 16:31N 35°27' E 139°40'0 0.0
2015-Jun-28 15:31N 35°27' E 139°40'0 0.0
2015-Jun-28 14:31N 35°27' E 139°40'0 0.0
2015-Jun-28 13:31N 35°27' E 139°40'0 0.0
2015-Jun-28 12:31N 35°27' E 139°40'0 0.0
2015-Jun-28 11:31N 35°27' E 139°40'0 0.0
2015-Jun-28 10:31N 35°27' E 139°40'3 3.0
2015-Jun-28 09:33N 35°26' E 139°44'5 5.1
2015-Jun-28 08:33N 35°29' E 139°49'3 2.8
2015-Jun-28 07:33N 35°29' E 139°45'0 0.0
2015-Jun-28 06:33N 35°29' E 139°45'0 0.0
2015-Jun-28 05:33N 35°29' E 139°45'0 0.0
2015-Jun-28 04:33N 35°29' E 139°45'0 0.0
2015-Jun-28 03:33N 35°29' E 139°45'1 1.2
2015-Jun-28 02:33N 35°28' E 139°45'8 8.4
2015-Jun-28 01:33N 35°37' E 139°46'0 0.2
2015-Jun-28 00:29N 35°37' E 139°46'0 0.0
2015-Jun-27 23:32N 35°37' E 139°46'0 0.0
2015-Jun-27 22:32N 35°37' E 139°46'0 0.0
2015-Jun-27 21:32N 35°37' E 139°46'0 0.0
2015-Jun-27 20:23N 35°37' E 139°46'0 0.0
2015-Jun-27 19:32N 35°37' E 139°46'0 0.0
2015-Jun-27 18:26N 35°37' E 139°46'0 0.0
2015-Jun-27 17:32N 35°37' E 139°46'0 0.0
2015-Jun-27 16:32N 35°37' E 139°46'0 0.0
2015-Jun-27 15:32N 35°37' E 139°46'0 0.0
2015-Jun-27 14:32N 35°37' E 139°46'0 0.0
2015-Jun-27 13:32N 35°37' E 139°46'0 0.0
2015-Jun-27 12:32N 35°37' E 139°46'0 0.0
2015-Jun-27 11:32N 35°37' E 139°46'0 0.0
2015-Jun-27 10:29N 35°37' E 139°46'0 0.0
2015-Jun-27 09:32N 35°37' E 139°46'0 0.2
2015-Jun-27 08:34N 35°36' E 139°46'9 9.0
2015-Jun-27 07:34N 35°29' E 139°51'1212.4
2015-Jun-27 06:33N 35°17' E 139°45'1010.3
2015-Jun-27 05:33N 35°07' E 139°46'1111.0
2015-Jun-27 04:33N 34°60' E 139°36'9 9.2
2015-Jun-27 03:33N 34°55' E 139°26'  

Dump ship's entire track history